Henderson, TN (38340)

11:33 PM CDT on September 01, 2015 (GMT -0500)
Historic East Main Street | | Change Station
CLOSE
Current Station
Personal Weather Station
Location: Jackson, TN
Elevation: 410 ft
Nearby Weather Stations

Elev 410 ft 35.61 °N, 88.81 °W | Updated 6 seconds ago

Clear
Clear
76.1 °F
Feels Like 76 °F
N
0.0
Wind Variable Wind from SE
Gusts 0.0 mph

Today
High -- | Low -- °F
--% Chance of Precip.
Yesterday
High -- | Low -- °F
Precip. -- in
6:26 AM 7:21 PM
Waning Gibbous, 83% visible
Pressure 30.10 in
Visibility 0.8 miles
Clouds Clear
Heat Index 76 °F
Dew Point 74 °F
Humidity 93%
Rainfall 0.00 in
Snow Depth Not available.
UV 0 out of 12
Pollen 9.10 out of 12
Air Quality Not available.
Flu Activity Not available.
SPECI KMKL 020424Z AUTO 00000KT 3/4SM BR CLR 22/21 A3010 RMK AO2 T02220211
Pressure 30.10 in
Visibility 0.8 miles
Clouds Clear
Heat Index 76 °F
Dew Point 74 °F
Humidity 93%
Rainfall 0.00 in
Snow Depth Not available.
UV 0 out of 12
Pollen 9.10 out of 12
Air Quality Not available.
Flu Activity Not available.
SPECI KMKL 020424Z AUTO 00000KT 3/4SM BR CLR 22/21 A3010 RMK AO2 T02220211

10-Day Weather Forecast

×

Almanac

Astronomy

Sep. 01, 2015 Rise Set
Actual Time
Civil Twilight
Nautical Twilight
Astronomical Twilight
Moon
Length of Visible Light
Length of Day
Tomorrow will be .
, % of the Moon is Illuminated

Today's Extremes

State Highs State Lows

Community

WunderPhotos

Upload Photos

1,851,695 photos uploaded!

WunderBlogs® & News

Nearby

Air Quality

  Air Quality AQ Index Pollutant
Not available.

Snow Depth

Station Depth Elevation

Earthquake Activity

City Distance Mag. Time & Date
Minimum magnitude displayed is 2.5.

Coastal Water Temperatures

Place Temperature

Stations

Nearby Weather Stations

Station Location Temp. Windchill Dew Point Humidity Wind Precip. Elev Updated Type